Time;durP1;ratioP1;P1;durP2;ratioP2;P2;SDS_P1;SDS_P2;PMS_P1;PMS_P2;Temp;Humidity;BMP_temperature;BMP_pressure;BME280_temperature;BME280_humidity;BME280_pressure;Samples;Min_cycle;Max_cycle;Signal;HPM_P1;HPM_P2
2022/10/13 00:00:40;;;;;;;24.33;15.48;;;;;;;;;;10098228;28;20060;-74
2022/10/13 00:05:34;;;;;;;17.50;14.13;;;;;;;;;;10105114;28;20072;-73
2022/10/13 00:10:28;;;;;;;20.45;14.27;;;;;;;;;;10107954;28;20061;-73
2022/10/13 00:15:24;;;;;;;19.80;14.98;;;;;;;;;;10101737;28;20099;-72
2022/10/13 00:20:18;;;;;;;20.23;14.77;;;;;;;;;;10097556;28;20057;-73
2022/10/13 00:25:12;;;;;;;19.58;14.25;;;;;;;;;;10095042;28;20053;-73
2022/10/13 00:30:08;;;;;;;23.60;15.65;;;;;;;;;;10107324;28;20053;-77
2022/10/13 00:35:05;;;;;;;24.48;16.10;;;;;;;;;;10104306;28;20046;-76
2022/10/13 00:39:58;;;;;;;27.77;15.23;;;;;;;;;;10101810;28;20045;-76
2022/10/13 00:45:04;;;;;;;17.55;15.35;;;;;;;;;;10107438;28;20401;-75
2022/10/13 00:49:59;;;;;;;22.55;16.05;;;;;;;;;;10107578;28;20057;-76
2022/10/13 00:54:54;;;;;;;18.75;14.50;;;;;;;;;;10107774;28;20069;-75
2022/10/13 00:59:50;;;;;;;22.67;13.93;;;;;;;;;;10122599;28;20041;-75
2022/10/13 01:04:44;;;;;;;25.02;14.77;;;;;;;;;;10097276;28;20056;-75
2022/10/13 01:09:38;;;;;;;19.60;15.30;;;;;;;;;;10105357;28;20079;-75
2022/10/13 01:14:40;;;;;;;21.55;17.10;;;;;;;;;;10102834;28;20048;-72
2022/10/13 01:19:58;;;;;;;23.98;16.30;;;;;;;;;;10106559;28;20053;-72
2022/10/13 01:25:29;;;;;;;32.60;16.30;;;;;;;;;;10100355;28;20099;-72
2022/10/13 01:30:22;;;;;;;26.10;17.45;;;;;;;;;;10098372;28;20053;-72
2022/10/13 01:35:55;;;;;;;28.45;21.95;;;;;;;;;;10105763;28;20052;-73
2022/10/13 01:41:14;;;;;;;26.35;19.73;;;;;;;;;;10105253;28;20550;-73
2022/10/13 01:46:32;;;;;;;27.67;18.00;;;;;;;;;;10069747;28;20053;-72
2022/10/13 01:52:06;;;;;;;30.83;20.50;;;;;;;;;;10103873;28;20056;-73
2022/10/13 01:57:31;;;;;;;26.02;18.50;;;;;;;;;;10099006;28;20091;-73
2022/10/13 02:02:30;;;;;;;26.33;18.98;;;;;;;;;;10097854;28;20052;-73
2022/10/13 02:07:37;;;;;;;28.60;20.00;;;;;;;;;;10101690;28;20053;-73
2022/10/13 02:12:48;;;;;;;19.92;16.40;;;;;;;;;;10095717;28;20068;-73
2022/10/13 02:17:42;;;;;;;21.13;18.85;;;;;;;;;;10097510;28;20059;-73
2022/10/13 02:22:41;;;;;;;22.77;17.73;;;;;;;;;;10100280;28;20056;-73
2022/10/13 02:27:41;;;;;;;21.42;17.98;;;;;;;;;;10101456;28;20045;-73
2022/10/13 02:32:36;;;;;;;35.03;18.05;;;;;;;;;;10094662;28;20140;-73
2022/10/13 02:37:32;;;;;;;24.63;17.70;;;;;;;;;;10093321;28;20053;-73
2022/10/13 02:42:26;;;;;;;23.38;18.33;;;;;;;;;;10102642;28;20072;-73
2022/10/13 02:47:21;;;;;;;25.70;18.83;;;;;;;;;;10093103;28;20147;-72
2022/10/13 02:52:15;;;;;;;26.00;19.27;;;;;;;;;;10098382;28;20045;-73
2022/10/13 02:57:10;;;;;;;23.67;17.35;;;;;;;;;;10101039;28;20057;-72
2022/10/13 03:02:08;;;;;;;25.63;17.45;;;;;;;;;;10095960;28;20045;-72
2022/10/13 03:07:02;;;;;;;21.27;17.05;;;;;;;;;;10094532;28;20052;-72
2022/10/13 03:11:56;;;;;;;21.63;18.10;;;;;;;;;;10105327;28;20057;-73
2022/10/13 03:16:49;;;;;;;31.63;18.55;;;;;;;;;;10108266;28;20049;-74
2022/10/13 03:21:44;;;;;;;28.58;18.50;;;;;;;;;;10104289;28;20053;-73
2022/10/13 03:26:38;;;;;;;26.38;20.95;;;;;;;;;;10105061;28;20508;-74
2022/10/13 03:31:32;;;;;;;37.20;23.48;;;;;;;;;;10107204;28;20049;-74
2022/10/13 03:36:26;;;;;;;37.10;24.98;;;;;;;;;;10108410;28;20152;-74
2022/10/13 03:41:21;;;;;;;36.78;26.13;;;;;;;;;;10110399;28;20126;-73
2022/10/13 03:46:16;;;;;;;38.95;26.08;;;;;;;;;;10108164;28;20427;-74
2022/10/13 03:51:13;;;;;;;28.65;21.05;;;;;;;;;;10103853;28;20059;-73
2022/10/13 03:56:20;;;;;;;40.08;21.85;;;;;;;;;;10103779;28;20081;-73
2022/10/13 04:01:16;;;;;;;31.50;22.67;;;;;;;;;;10103471;28;20115;-73
2022/10/13 04:06:11;;;;;;;26.20;21.67;;;;;;;;;;10102516;28;20053;-72
2022/10/13 04:11:07;;;;;;;31.35;20.65;;;;;;;;;;10103594;28;20053;-73
2022/10/13 04:16:06;;;;;;;28.20;22.05;;;;;;;;;;10104860;28;20079;-73
2022/10/13 04:21:00;;;;;;;35.47;22.73;;;;;;;;;;10104809;28;20091;-73
2022/10/13 04:25:55;;;;;;;31.55;22.15;;;;;;;;;;10100148;28;20052;-73
2022/10/13 04:30:49;;;;;;;28.65;20.42;;;;;;;;;;10107915;28;20048;-73
2022/10/13 04:35:43;;;;;;;34.75;22.02;;;;;;;;;;10109088;28;20534;-73
2022/10/13 04:40:37;;;;;;;32.78;21.83;;;;;;;;;;10103833;28;20052;-73
2022/10/13 04:45:30;;;;;;;37.22;24.27;;;;;;;;;;10102519;28;20586;-73
2022/10/13 04:50:24;;;;;;;34.65;24.15;;;;;;;;;;10099690;28;20151;-73
2022/10/13 04:55:23;;;;;;;38.60;24.88;;;;;;;;;;10088064;28;20107;-73
2022/10/13 05:00:17;;;;;;;30.88;22.90;;;;;;;;;;10079703;28;20058;-74
2022/10/13 05:05:10;;;;;;;39.58;22.80;;;;;;;;;;10084681;28;20048;-73
2022/10/13 05:10:05;;;;;;;32.63;21.85;;;;;;;;;;10100498;28;20060;-72
2022/10/13 05:14:59;;;;;;;25.30;19.85;;;;;;;;;;10097039;28;20464;-73
2022/10/13 05:19:54;;;;;;;26.13;18.88;;;;;;;;;;10098397;28;20141;-72
2022/10/13 05:24:48;;;;;;;27.48;19.50;;;;;;;;;;10100350;28;20156;-72
2022/10/13 05:29:42;;;;;;;25.30;17.40;;;;;;;;;;10101858;28;20063;-71
2022/10/13 05:34:36;;;;;;;23.35;18.80;;;;;;;;;;10103401;28;20069;-70
2022/10/13 05:39:30;;;;;;;27.23;19.75;;;;;;;;;;10100380;28;20053;-71
2022/10/13 05:44:24;;;;;;;25.83;21.40;;;;;;;;;;10098694;28;20576;-72
2022/10/13 05:49:20;;;;;;;33.53;23.90;;;;;;;;;;10101495;28;20147;-73
2022/10/13 05:54:23;;;;;;;39.90;22.95;;;;;;;;;;10094556;28;20045;-73
2022/10/13 05:59:25;;;;;;;42.83;24.30;;;;;;;;;;10098996;28;20052;-73
2022/10/13 06:04:23;;;;;;;31.92;21.42;;;;;;;;;;10100862;28;20055;-75
2022/10/13 06:09:16;;;;;;;32.47;20.90;;;;;;;;;;10094426;28;20063;-72
2022/10/13 06:14:11;;;;;;;32.50;21.35;;;;;;;;;;10098555;28;20049;-72
2022/10/13 06:19:05;;;;;;;32.40;21.27;;;;;;;;;;10094052;28;20136;-72
2022/10/13 06:24:00;;;;;;;30.67;18.75;;;;;;;;;;10090286;28;20053;-75
2022/10/13 06:28:53;;;;;;;30.92;20.83;;;;;;;;;;10088800;28;20056;-74
2022/10/13 06:33:53;;;;;;;28.63;20.23;;;;;;;;;;10076787;28;20099;-75
2022/10/13 06:38:46;;;;;;;28.60;20.17;;;;;;;;;;10079266;28;20049;-75
2022/10/13 06:43:42;;;;;;;26.58;20.05;;;;;;;;;;10085797;28;20099;-75
2022/10/13 06:48:36;;;;;;;27.85;20.58;;;;;;;;;;10108057;28;20053;-75
2022/10/13 06:53:30;;;;;;;30.85;20.58;;;;;;;;;;10098909;28;20520;-72
2022/10/13 06:58:24;;;;;;;26.83;20.70;;;;;;;;;;10103412;28;20056;-74
2022/10/13 07:03:17;;;;;;;28.20;20.13;;;;;;;;;;10105865;28;20049;-75
2022/10/13 07:08:11;;;;;;;29.00;20.25;;;;;;;;;;10110590;28;20462;-73
2022/10/13 07:13:06;;;;;;;30.48;20.73;;;;;;;;;;10108842;28;20049;-73
2022/10/13 07:17:59;;;;;;;30.25;19.77;;;;;;;;;;10103951;28;20110;-73
2022/10/13 07:22:54;;;;;;;27.33;19.00;;;;;;;;;;10103695;28;20052;-73
2022/10/13 07:27:49;;;;;;;23.23;17.92;;;;;;;;;;10111494;28;20049;-74
2022/10/13 07:32:43;;;;;;;26.35;19.13;;;;;;;;;;10097128;28;20053;-73
2022/10/13 07:37:37;;;;;;;23.95;18.50;;;;;;;;;;10108826;28;20136;-74
2022/10/13 07:42:32;;;;;;;32.53;20.00;;;;;;;;;;10109425;28;20059;-74
2022/10/13 07:47:28;;;;;;;25.57;20.60;;;;;;;;;;10107103;28;20416;-73
2022/10/13 07:52:22;;;;;;;28.10;21.27;;;;;;;;;;10096335;28;20311;-75
2022/10/13 07:57:17;;;;;;;42.88;21.02;;;;;;;;;;10092077;28;20049;-77
2022/10/13 08:02:11;;;;;;;35.15;21.92;;;;;;;;;;10094362;28;20496;-73
2022/10/13 08:07:05;;;;;;;29.73;21.02;;;;;;;;;;10086668;28;20060;-75
2022/10/13 08:11:59;;;;;;;25.13;20.00;;;;;;;;;;10100456;28;20079;-76
2022/10/13 08:16:54;;;;;;;27.15;18.83;;;;;;;;;;10097983;28;20563;-74
2022/10/13 08:21:48;;;;;;;21.98;18.08;;;;;;;;;;10098539;28;20050;-80
2022/10/13 08:26:50;;;;;;;24.00;19.00;;;;;;;;;;10085722;28;20056;-79
2022/10/13 08:31:44;;;;;;;17.98;15.25;;;;;;;;;;10102971;28;20049;-77
2022/10/13 08:36:38;;;;;;;19.92;14.57;;;;;;;;;;10095711;28;20048;-78
2022/10/13 08:41:37;;;;;;;18.77;14.55;;;;;;;;;;10101073;28;20068;-79
2022/10/13 08:46:49;;;;;;;28.80;16.80;;;;;;;;;;10101272;28;20045;-78
2022/10/13 08:52:02;;;;;;;25.20;16.33;;;;;;;;;;10091534;28;20045;-80
2022/10/13 08:56:55;;;;;;;20.48;16.63;;;;;;;;;;10095789;28;20053;-79
2022/10/13 09:01:52;;;;;;;23.70;16.75;;;;;;;;;;10088387;28;20053;-79
2022/10/13 09:07:07;;;;;;;23.60;17.20;;;;;;;;;;10090312;28;20415;-81
2022/10/13 09:12:01;;;;;;;26.02;17.42;;;;;;;;;;10101278;28;20051;-79
2022/10/13 09:16:56;;;;;;;21.38;17.15;;;;;;;;;;10103375;28;20053;-80
2022/10/13 09:21:52;;;;;;;23.98;18.05;;;;;;;;;;10092282;28;20053;-79
2022/10/13 09:26:49;;;;;;;27.38;18.75;;;;;;;;;;10098889;28;20077;-79
2022/10/13 09:31:41;;;;;;;31.90;20.23;;;;;;;;;;10104143;28;20384;-80
2022/10/13 09:36:37;;;;;;;19.65;16.58;;;;;;;;;;10101120;28;20519;-79
2022/10/13 09:41:30;;;;;;;24.25;17.40;;;;;;;;;;10106333;28;20460;-79
2022/10/13 09:46:31;;;;;;;19.13;15.88;;;;;;;;;;10104301;28;20525;-78
2022/10/13 09:51:37;;;;;;;22.02;16.83;;;;;;;;;;10103191;28;20496;-79
2022/10/13 09:56:51;;;;;;;24.17;17.02;;;;;;;;;;10103202;28;20068;-79
2022/10/13 10:01:48;;;;;;;28.17;16.00;;;;;;;;;;10082311;28;20087;-71
2022/10/13 10:06:43;;;;;;;21.40;16.45;;;;;;;;;;10092125;28;20543;-74
2022/10/13 10:11:35;;;;;;;27.48;15.95;;;;;;;;;;10094141;28;20578;-75
2022/10/13 10:16:34;;;;;;;19.55;14.90;;;;;;;;;;10095704;28;20096;-74
2022/10/13 10:21:37;;;;;;;17.60;13.27;;;;;;;;;;10083020;28;20427;-74
2022/10/13 10:27:00;;;;;;;19.63;12.65;;;;;;;;;;10096755;28;20055;-73
2022/10/13 10:32:25;;;;;;;24.42;13.57;;;;;;;;;;10084826;28;20116;-75
2022/10/13 10:37:35;;;;;;;16.80;14.55;;;;;;;;;;10090327;28;20428;-74
2022/10/13 10:42:50;;;;;;;18.80;14.35;;;;;;;;;;10092734;28;20048;-76
2022/10/13 10:47:47;;;;;;;14.98;11.95;;;;;;;;;;10094256;28;20099;-73
2022/10/13 10:52:53;;;;;;;19.30;12.75;;;;;;;;;;10103539;28;20499;-77
2022/10/13 10:58:04;;;;;;;17.90;11.93;;;;;;;;;;10096585;28;20045;-79
2022/10/13 11:03:52;;;;;;;20.25;10.35;;;;;;;;;;10100643;28;20045;-76
2022/10/13 11:08:47;;;;;;;28.60;10.52;;;;;;;;;;10087562;28;20045;-76
2022/10/13 11:13:56;;;;;;;12.50;10.35;;;;;;;;;;10087321;28;20057;-77
2022/10/13 11:19:28;;;;;;;18.85;12.35;;;;;;;;;;10091673;28;20057;-76
2022/10/13 11:24:35;;;;;;;16.88;11.60;;;;;;;;;;10039606;28;20405;-76
2022/10/13 11:29:42;;;;;;;15.15;12.48;;;;;;;;;;10094687;28;20053;-77
2022/10/13 11:34:36;;;;;;;17.13;11.65;;;;;;;;;;10102898;28;20044;-78
2022/10/13 11:39:35;;;;;;;22.65;11.68;;;;;;;;;;10109030;28;20059;-77
2022/10/13 11:44:31;;;;;;;16.48;12.45;;;;;;;;;;10110470;28;20052;-76
2022/10/13 11:49:57;;;;;;;18.90;11.45;;;;;;;;;;10099213;28;20053;-76
2022/10/13 11:54:54;;;;;;;13.93;10.68;;;;;;;;;;10102183;28;20146;-75
2022/10/13 11:59:53;;;;;;;13.00;8.38;;;;;;;;;;10109237;28;20063;-79
2022/10/13 12:05:15;;;;;;;20.85;13.63;;;;;;;;;;10103347;28;20083;-78
2022/10/13 12:10:18;;;;;;;20.10;14.18;;;;;;;;;;10098030;28;20091;-77
2022/10/13 12:15:30;;;;;;;17.42;12.02;;;;;;;;;;10109707;28;20079;-72
2022/10/13 12:20:44;;;;;;;23.33;13.15;;;;;;;;;;10095069;28;20057;-77
2022/10/13 12:25:37;;;;;;;20.10;13.48;;;;;;;;;;10091234;28;20060;-77
2022/10/13 12:30:35;;;;;;;17.15;13.45;;;;;;;;;;10109429;28;20049;-78
2022/10/13 12:35:33;;;;;;;21.00;14.38;;;;;;;;;;10103377;28;20053;-76
2022/10/13 12:40:26;;;;;;;21.13;14.57;;;;;;;;;;10085346;28;20044;-77
2022/10/13 12:45:23;;;;;;;19.95;13.55;;;;;;;;;;10093690;28;20334;-77
2022/10/13 12:50:28;;;;;;;25.17;15.50;;;;;;;;;;10105305;28;20460;-77
2022/10/13 12:55:22;;;;;;;18.70;12.90;;;;;;;;;;10085592;28;20045;-77
2022/10/13 13:00:25;;;;;;;19.33;12.32;;;;;;;;;;10097130;28;21283;-77
2022/10/13 13:05:33;;;;;;;16.80;11.43;;;;;;;;;;10090861;28;20053;-77
2022/10/13 13:10:28;;;;;;;18.08;13.27;;;;;;;;;;10106252;28;20057;-77
2022/10/13 13:15:24;;;;;;;18.33;11.70;;;;;;;;;;10105425;28;20053;-77
2022/10/13 13:20:29;;;;;;;14.23;11.52;;;;;;;;;;10104213;28;20072;-78
2022/10/13 13:25:23;;;;;;;15.02;12.05;;;;;;;;;;10122299;28;20415;-73
2022/10/13 13:30:19;;;;;;;21.05;11.75;;;;;;;;;;10115980;28;20053;-71
2022/10/13 13:35:14;;;;;;;18.50;12.82;;;;;;;;;;10095358;28;20053;-71
2022/10/13 13:40:15;;;;;;;18.77;11.38;;;;;;;;;;10097367;28;20044;-72
2022/10/13 13:45:14;;;;;;;21.95;10.80;;;;;;;;;;10092782;28;20388;-71
2022/10/13 13:50:23;;;;;;;15.63;10.98;;;;;;;;;;10107703;28;20576;-71
2022/10/13 13:55:22;;;;;;;19.08;11.90;;;;;;;;;;10118021;28;20064;-72
2022/10/13 14:00:15;;;;;;;17.13;13.70;;;;;;;;;;10111563;28;20124;-71
2022/10/13 14:05:12;;;;;;;17.63;12.70;;;;;;;;;;10105959;28;20053;-73
2022/10/13 14:10:09;;;;;;;21.92;12.55;;;;;;;;;;10115755;28;20582;-72
2022/10/13 14:15:02;;;;;;;16.98;12.35;;;;;;;;;;10103142;28;20080;-72
2022/10/13 14:19:56;;;;;;;15.05;12.48;;;;;;;;;;10106739;28;20056;-72
2022/10/13 14:24:49;;;;;;;18.63;11.55;;;;;;;;;;10108223;28;20462;-72
2022/10/13 14:29:43;;;;;;;16.02;11.18;;;;;;;;;;10111464;28;20152;-73
2022/10/13 14:34:37;;;;;;;18.33;9.98;;;;;;;;;;10101430;28;20040;-71
2022/10/13 14:39:30;;;;;;;19.15;11.32;;;;;;;;;;10106610;28;20058;-72
2022/10/13 14:44:23;;;;;;;17.90;10.82;;;;;;;;;;10107775;28;20504;-72
2022/10/13 14:49:17;;;;;;;17.65;11.48;;;;;;;;;;10114979;28;20523;-72
2022/10/13 14:54:12;;;;;;;15.85;10.77;;;;;;;;;;10122040;28;20419;-72
2022/10/13 14:59:06;;;;;;;17.38;12.02;;;;;;;;;;10111169;28;20139;-71
2022/10/13 15:04:03;;;;;;;25.92;11.70;;;;;;;;;;10116694;28;20053;-72
2022/10/13 15:08:57;;;;;;;20.90;12.15;;;;;;;;;;10126219;28;20064;-72
2022/10/13 15:13:52;;;;;;;19.92;11.18;;;;;;;;;;10123162;28;20143;-72
2022/10/13 15:18:45;;;;;;;20.85;10.63;;;;;;;;;;10124926;28;20139;-72
2022/10/13 15:23:40;;;;;;;17.35;12.63;;;;;;;;;;10111658;28;20056;-72
2022/10/13 15:28:39;;;;;;;17.30;12.25;;;;;;;;;;10117419;28;20040;-73
2022/10/13 15:33:34;;;;;;;18.25;11.63;;;;;;;;;;10108832;28;20079;-73
2022/10/13 15:38:28;;;;;;;18.52;10.75;;;;;;;;;;10114359;28;20157;-72
2022/10/13 15:43:22;;;;;;;22.85;12.30;;;;;;;;;;10118866;28;20499;-71
2022/10/13 15:48:16;;;;;;;25.80;12.35;;;;;;;;;;10108664;28;20102;-73
2022/10/13 15:53:12;;;;;;;17.02;12.02;;;;;;;;;;10115856;28;20136;-71
2022/10/13 15:58:06;;;;;;;18.55;12.15;;;;;;;;;;10118148;28;20568;-72
2022/10/13 16:03:06;;;;;;;17.15;12.10;;;;;;;;;;10122301;28;20527;-72
2022/10/13 16:08:00;;;;;;;17.85;12.98;;;;;;;;;;10113954;28;20466;-72
2022/10/13 16:12:54;;;;;;;24.75;13.48;;;;;;;;;;10096890;28;20064;-72
2022/10/13 16:17:47;;;;;;;16.20;12.45;;;;;;;;;;10105533;28;20187;-72
2022/10/13 16:22:40;;;;;;;17.23;12.35;;;;;;;;;;10112853;28;20139;-72
2022/10/13 16:27:36;;;;;;;18.33;11.32;;;;;;;;;;10111140;28;20155;-71
2022/10/13 16:32:39;;;;;;;19.77;10.75;;;;;;;;;;10106775;28;20118;-73
2022/10/13 16:37:32;;;;;;;17.40;11.50;;;;;;;;;;10096367;28;20040;-73
2022/10/13 16:42:27;;;;;;;19.45;11.98;;;;;;;;;;10099981;28;20052;-73
2022/10/13 16:47:21;;;;;;;17.40;12.50;;;;;;;;;;10093281;28;20060;-73
2022/10/13 16:52:15;;;;;;;19.98;13.13;;;;;;;;;;10101414;28;20491;-73
2022/10/13 16:57:09;;;;;;;24.02;15.55;;;;;;;;;;10094394;28;20396;-73
2022/10/13 17:02:03;;;;;;;23.25;14.35;;;;;;;;;;10086865;28;20107;-73
2022/10/13 17:06:57;;;;;;;23.13;16.17;;;;;;;;;;10084319;28;20049;-74
2022/10/13 17:11:50;;;;;;;19.08;14.68;;;;;;;;;;10089043;28;20087;-74
2022/10/13 17:16:44;;;;;;;20.80;15.48;;;;;;;;;;10098646;28;20103;-73
2022/10/13 17:21:37;;;;;;;20.23;15.05;;;;;;;;;;10090456;28;20120;-73
2022/10/13 17:26:33;;;;;;;19.02;13.73;;;;;;;;;;10094779;28;20057;-73
2022/10/13 17:31:27;;;;;;;18.42;13.07;;;;;;;;;;10094473;28;20115;-73
2022/10/13 17:36:24;;;;;;;18.45;13.18;;;;;;;;;;10099911;28;20056;-73
2022/10/13 17:41:19;;;;;;;19.27;14.60;;;;;;;;;;10099666;28;20067;-73
2022/10/13 17:46:18;;;;;;;22.98;13.98;;;;;;;;;;10086261;28;20057;-74
2022/10/13 17:51:30;;;;;;;18.08;12.10;;;;;;;;;;10093132;28;20049;-72
2022/10/13 17:56:24;;;;;;;18.20;12.45;;;;;;;;;;10093678;28;20103;-72
2022/10/13 18:01:20;;;;;;;15.73;12.00;;;;;;;;;;10105622;28;20080;-73
2022/10/13 18:06:16;;;;;;;19.90;14.33;;;;;;;;;;10105511;28;20078;-73
2022/10/13 18:11:11;;;;;;;30.00;17.73;;;;;;;;;;10099463;28;20059;-73
2022/10/13 18:16:07;;;;;;;22.15;16.25;;;;;;;;;;10105859;28;20143;-73
2022/10/13 18:21:02;;;;;;;23.08;15.48;;;;;;;;;;10093486;28;20052;-73
2022/10/13 18:26:00;;;;;;;26.52;14.75;;;;;;;;;;10097348;28;20534;-72
2022/10/13 18:30:54;;;;;;;28.63;14.95;;;;;;;;;;10098966;28;20049;-72
2022/10/13 18:35:48;;;;;;;21.65;14.23;;;;;;;;;;10103200;28;20059;-73
2022/10/13 18:40:43;;;;;;;18.60;15.18;;;;;;;;;;10107031;28;20087;-73
2022/10/13 18:45:37;;;;;;;33.72;15.10;;;;;;;;;;10101331;28;20049;-73
2022/10/13 18:50:30;;;;;;;21.63;13.73;;;;;;;;;;10102898;28;20044;-73
2022/10/13 18:55:24;;;;;;;18.35;13.32;;;;;;;;;;10106565;28;20056;-73
2022/10/13 19:00:19;;;;;;;19.70;14.52;;;;;;;;;;10108044;28;20496;-73
2022/10/13 19:05:13;;;;;;;23.50;14.00;;;;;;;;;;10103731;28;20076;-73
2022/10/13 19:10:09;;;;;;;24.65;14.82;;;;;;;;;;10105282;28;20124;-74
2022/10/13 19:15:06;;;;;;;19.75;14.75;;;;;;;;;;10111045;28;20419;-73
2022/10/13 19:20:00;;;;;;;18.13;16.23;;;;;;;;;;10106709;28;20065;-73
2022/10/13 19:24:54;;;;;;;20.58;14.35;;;;;;;;;;10102026;28;20110;-73
2022/10/13 19:29:51;;;;;;;22.20;16.25;;;;;;;;;;10104906;28;20616;-73
2022/10/13 19:34:45;;;;;;;26.35;16.50;;;;;;;;;;10096785;28;20045;-74
2022/10/13 19:39:39;;;;;;;21.92;16.55;;;;;;;;;;10099815;28;20411;-73
2022/10/13 19:44:33;;;;;;;31.60;15.93;;;;;;;;;;10088771;28;20119;-74
2022/10/13 19:49:26;;;;;;;24.98;15.57;;;;;;;;;;10097410;28;20606;-73
2022/10/13 19:54:20;;;;;;;20.15;15.55;;;;;;;;;;10107166;28;20077;-73
2022/10/13 19:59:13;;;;;;;21.48;16.25;;;;;;;;;;10109071;28;20091;-73
2022/10/13 20:04:08;;;;;;;24.35;16.05;;;;;;;;;;10097436;28;20060;-74
2022/10/13 20:09:03;;;;;;;20.25;15.73;;;;;;;;;;10107792;28;20492;-71
2022/10/13 20:13:57;;;;;;;21.70;15.30;;;;;;;;;;10102354;28;20063;-70
2022/10/13 20:18:56;;;;;;;18.55;14.60;;;;;;;;;;10096489;28;20111;-69
2022/10/13 20:23:50;;;;;;;22.98;16.10;;;;;;;;;;10093733;28;20053;-69
2022/10/13 20:28:45;;;;;;;21.63;15.98;;;;;;;;;;10087716;28;20091;-71
2022/10/13 20:33:39;;;;;;;24.13;15.00;;;;;;;;;;10082653;28;20515;-71
2022/10/13 20:38:35;;;;;;;23.98;16.85;;;;;;;;;;10098369;28;20380;-70
2022/10/13 20:43:28;;;;;;;19.90;16.27;;;;;;;;;;10091151;28;20053;-70
2022/10/13 20:48:22;;;;;;;26.80;16.63;;;;;;;;;;10093107;28;20049;-70
2022/10/13 20:53:16;;;;;;;26.08;18.25;;;;;;;;;;10099328;28;20099;-75
2022/10/13 20:58:11;;;;;;;23.63;18.65;;;;;;;;;;10097613;28;20147;-72
2022/10/13 21:03:06;;;;;;;24.65;18.75;;;;;;;;;;10097578;28;20052;-71
2022/10/13 21:08:00;;;;;;;22.05;18.58;;;;;;;;;;10099291;28;20132;-72
2022/10/13 21:12:56;;;;;;;21.55;17.92;;;;;;;;;;10096364;28;20045;-72
2022/10/13 21:17:51;;;;;;;26.20;17.30;;;;;;;;;;10104331;28;20052;-72
2022/10/13 21:22:45;;;;;;;24.50;17.98;;;;;;;;;;10098191;28;20052;-72
2022/10/13 21:27:39;;;;;;;24.90;18.55;;;;;;;;;;10095676;28;20087;-72
2022/10/13 21:32:33;;;;;;;23.75;17.13;;;;;;;;;;10101115;28;20056;-71
2022/10/13 21:37:26;;;;;;;21.25;17.67;;;;;;;;;;10097520;28;20420;-73
2022/10/13 21:42:20;;;;;;;24.20;16.90;;;;;;;;;;10099822;28;20411;-72
2022/10/13 21:47:14;;;;;;;19.27;15.82;;;;;;;;;;10093279;28;20432;-74
2022/10/13 21:52:09;;;;;;;20.73;16.15;;;;;;;;;;10100025;28;20055;-73
2022/10/13 21:57:04;;;;;;;23.85;17.10;;;;;;;;;;10099139;28;20136;-73
2022/10/13 22:01:58;;;;;;;23.48;17.35;;;;;;;;;;10098371;28;20052;-74
2022/10/13 22:06:51;;;;;;;28.50;19.05;;;;;;;;;;10100094;28;20087;-73
2022/10/13 22:11:50;;;;;;;21.98;17.33;;;;;;;;;;10095838;28;20120;-73
2022/10/13 22:16:50;;;;;;;24.50;17.83;;;;;;;;;;10098218;28;20084;-74
2022/10/13 22:21:46;;;;;;;25.63;17.52;;;;;;;;;;10102051;28;20057;-74
2022/10/13 22:26:41;;;;;;;23.05;17.55;;;;;;;;;;10102753;28;20075;-73
2022/10/13 22:31:37;;;;;;;23.25;19.02;;;;;;;;;;10091589;28;20049;-73
2022/10/13 22:36:33;;;;;;;29.10;16.98;;;;;;;;;;10095841;28;20077;-73
2022/10/13 22:41:27;;;;;;;21.17;16.15;;;;;;;;;;10097455;28;20049;-73
2022/10/13 22:46:23;;;;;;;22.63;16.50;;;;;;;;;;10095507;28;20152;-72
2022/10/13 22:51:19;;;;;;;24.08;15.40;;;;;;;;;;10100694;28;20064;-71
2022/10/13 22:56:15;;;;;;;18.27;14.80;;;;;;;;;;10101848;28;20134;-72
2022/10/13 23:01:13;;;;;;;26.08;16.42;;;;;;;;;;10099757;28;20047;-72
2022/10/13 23:06:11;;;;;;;29.43;17.93;;;;;;;;;;10096754;28;20423;-72
2022/10/13 23:11:05;;;;;;;25.13;18.10;;;;;;;;;;10104325;28;20045;-72
2022/10/13 23:16:27;;;;;;;23.85;17.48;;;;;;;;;;10103387;28;20095;-72
2022/10/13 23:21:22;;;;;;;24.55;17.92;;;;;;;;;;10086388;28;20103;-72
2022/10/13 23:26:17;;;;;;;28.70;19.42;;;;;;;;;;10101000;28;20099;-72
2022/10/13 23:31:14;;;;;;;23.42;16.95;;;;;;;;;;10107639;28;20033;-72
2022/10/13 23:36:12;;;;;;;24.55;17.35;;;;;;;;;;10106850;28;20076;-72
2022/10/13 23:41:08;;;;;;;29.40;18.07;;;;;;;;;;10092369;28;20041;-72
2022/10/13 23:46:03;;;;;;;25.00;17.83;;;;;;;;;;10108939;28;20145;-72
2022/10/13 23:50:56;;;;;;;19.13;15.50;;;;;;;;;;10102978;28;20044;-72
2022/10/13 23:55:51;;;;;;;21.00;17.15;;;;;;;;;;10109167;28;20041;-72
